sensor_id;sensor_type;location;lat;lon;timestamp;P1;durP1;ratioP1;P2;durP2;ratioP2
81195;SDS011;70671;43.888;-79.394;2023-06-14T00:01:13;20.02;;;9.95;;
81195;SDS011;70671;43.888;-79.394;2023-06-14T00:03:40;19.75;;;10.23;;
81195;SDS011;70671;43.888;-79.394;2023-06-14T00:06:05;23.48;;;10.27;;
81195;SDS011;70671;43.888;-79.394;2023-06-14T00:08:31;20.00;;;10.13;;
81195;SDS011;70671;43.888;-79.394;2023-06-14T00:10:57;20.10;;;9.93;;
81195;SDS011;70671;43.888;-79.394;2023-06-14T00:13:23;18.55;;;10.27;;
81195;SDS011;70671;43.888;-79.394;2023-06-14T00:15:50;19.50;;;9.52;;
81195;SDS011;70671;43.888;-79.394;2023-06-14T00:18:20;22.80;;;11.02;;
81195;SDS011;70671;43.888;-79.394;2023-06-14T00:20:49;17.48;;;9.43;;
81195;SDS011;70671;43.888;-79.394;2023-06-14T00:23:17;21.40;;;10.70;;
81195;SDS011;70671;43.888;-79.394;2023-06-14T00:25:43;18.52;;;9.65;;
81195;SDS011;70671;43.888;-79.394;2023-06-14T00:28:09;19.08;;;10.25;;
81195;SDS011;70671;43.888;-79.394;2023-06-14T00:30:35;17.45;;;9.32;;
81195;SDS011;70671;43.888;-79.394;2023-06-14T00:33:01;17.85;;;8.85;;
81195;SDS011;70671;43.888;-79.394;2023-06-14T00:35:27;18.90;;;10.20;;
81195;SDS011;70671;43.888;-79.394;2023-06-14T00:37:53;19.67;;;9.57;;
81195;SDS011;70671;43.888;-79.394;2023-06-14T00:40:20;20.20;;;9.38;;
81195;SDS011;70671;43.888;-79.394;2023-06-14T00:42:47;18.15;;;9.13;;
81195;SDS011;70671;43.888;-79.394;2023-06-14T00:45:13;18.80;;;9.63;;
81195;SDS011;70671;43.888;-79.394;2023-06-14T00:47:39;21.55;;;9.75;;
81195;SDS011;70671;43.888;-79.394;2023-06-14T00:50:08;21.65;;;9.77;;
81195;SDS011;70671;43.888;-79.394;2023-06-14T00:52:35;18.83;;;9.85;;
81195;SDS011;70671;43.888;-79.394;2023-06-14T00:55:01;19.33;;;9.35;;
81195;SDS011;70671;43.888;-79.394;2023-06-14T00:57:27;17.30;;;8.27;;
81195;SDS011;70671;43.888;-79.394;2023-06-14T00:59:54;17.92;;;8.82;;
81195;SDS011;70671;43.888;-79.394;2023-06-14T01:02:21;21.08;;;9.65;;
81195;SDS011;70671;43.888;-79.394;2023-06-14T01:04:47;21.23;;;10.88;;
81195;SDS011;70671;43.888;-79.394;2023-06-14T01:13:19;18.67;;;9.30;;
81195;SDS011;70671;43.888;-79.394;2023-06-14T01:15:53;21.60;;;9.30;;
81195;SDS011;70671;43.888;-79.394;2023-06-14T01:18:22;17.15;;;8.70;;
81195;SDS011;70671;43.888;-79.394;2023-06-14T01:20:49;19.58;;;9.05;;
81195;SDS011;70671;43.888;-79.394;2023-06-14T01:23:20;22.67;;;10.13;;
81195;SDS011;70671;43.888;-79.394;2023-06-14T01:25:47;18.50;;;9.70;;
81195;SDS011;70671;43.888;-79.394;2023-06-14T01:28:18;18.55;;;8.77;;
81195;SDS011;70671;43.888;-79.394;2023-06-14T01:30:46;16.45;;;8.23;;
81195;SDS011;70671;43.888;-79.394;2023-06-14T01:33:24;21.90;;;9.20;;
81195;SDS011;70671;43.888;-79.394;2023-06-14T01:35:53;19.70;;;9.60;;
81195;SDS011;70671;43.888;-79.394;2023-06-14T01:38:21;19.45;;;8.38;;
81195;SDS011;70671;43.888;-79.394;2023-06-14T01:40:49;20.92;;;8.40;;
81195;SDS011;70671;43.888;-79.394;2023-06-14T01:43:17;17.48;;;8.75;;
81195;SDS011;70671;43.888;-79.394;2023-06-14T01:45:44;23.90;;;10.73;;
81195;SDS011;70671;43.888;-79.394;2023-06-14T01:48:14;23.10;;;11.18;;
81195;SDS011;70671;43.888;-79.394;2023-06-14T01:50:40;23.95;;;10.82;;
81195;SDS011;70671;43.888;-79.394;2023-06-14T01:53:07;20.42;;;9.02;;
81195;SDS011;70671;43.888;-79.394;2023-06-14T01:55:34;17.58;;;8.73;;
81195;SDS011;70671;43.888;-79.394;2023-06-14T01:58:05;18.70;;;9.30;;
81195;SDS011;70671;43.888;-79.394;2023-06-14T02:00:31;19.67;;;9.13;;
81195;SDS011;70671;43.888;-79.394;2023-06-14T02:02:58;20.38;;;9.82;;
81195;SDS011;70671;43.888;-79.394;2023-06-14T02:05:24;18.75;;;7.80;;
81195;SDS011;70671;43.888;-79.394;2023-06-14T02:07:50;16.48;;;7.57;;
81195;SDS011;70671;43.888;-79.394;2023-06-14T02:10:16;17.60;;;7.72;;
81195;SDS011;70671;43.888;-79.394;2023-06-14T02:12:43;18.65;;;8.85;;
81195;SDS011;70671;43.888;-79.394;2023-06-14T02:15:09;16.35;;;8.30;;
81195;SDS011;70671;43.888;-79.394;2023-06-14T02:17:42;20.80;;;10.10;;
81195;SDS011;70671;43.888;-79.394;2023-06-14T02:20:09;18.30;;;8.52;;
81195;SDS011;70671;43.888;-79.394;2023-06-14T02:22:35;17.83;;;8.55;;
81195;SDS011;70671;43.888;-79.394;2023-06-14T02:25:01;16.98;;;6.97;;
81195;SDS011;70671;43.888;-79.394;2023-06-14T02:27:27;16.13;;;7.85;;
81195;SDS011;70671;43.888;-79.394;2023-06-14T02:29:53;17.10;;;7.07;;
81195;SDS011;70671;43.888;-79.394;2023-06-14T02:32:19;14.73;;;7.40;;
81195;SDS011;70671;43.888;-79.394;2023-06-14T02:34:45;14.27;;;7.00;;
81195;SDS011;70671;43.888;-79.394;2023-06-14T02:37:15;14.57;;;6.35;;
81195;SDS011;70671;43.888;-79.394;2023-06-14T02:39:41;13.88;;;6.18;;
81195;SDS011;70671;43.888;-79.394;2023-06-14T02:42:07;14.63;;;6.43;;
81195;SDS011;70671;43.888;-79.394;2023-06-14T02:44:40;11.50;;;5.28;;
81195;SDS011;70671;43.888;-79.394;2023-06-14T02:47:06;13.38;;;5.90;;
81195;SDS011;70671;43.888;-79.394;2023-06-14T02:49:32;10.93;;;6.07;;
81195;SDS011;70671;43.888;-79.394;2023-06-14T02:51:58;12.93;;;5.57;;
81195;SDS011;70671;43.888;-79.394;2023-06-14T02:54:24;12.95;;;5.38;;
81195;SDS011;70671;43.888;-79.394;2023-06-14T02:56:50;11.70;;;5.28;;
81195;SDS011;70671;43.888;-79.394;2023-06-14T02:59:16;15.15;;;5.57;;
81195;SDS011;70671;43.888;-79.394;2023-06-14T03:01:42;13.70;;;6.10;;
81195;SDS011;70671;43.888;-79.394;2023-06-14T03:04:08;15.60;;;6.35;;
81195;SDS011;70671;43.888;-79.394;2023-06-14T03:06:37;11.38;;;4.43;;
81195;SDS011;70671;43.888;-79.394;2023-06-14T03:11:39;12.57;;;4.97;;
81195;SDS011;70671;43.888;-79.394;2023-06-14T03:14:06;12.10;;;4.97;;
81195;SDS011;70671;43.888;-79.394;2023-06-14T03:16:33;14.75;;;6.40;;
81195;SDS011;70671;43.888;-79.394;2023-06-14T03:19:00;15.00;;;5.90;;
81195;SDS011;70671;43.888;-79.394;2023-06-14T03:21:26;11.13;;;5.38;;
81195;SDS011;70671;43.888;-79.394;2023-06-14T03:23:52;12.43;;;4.93;;
81195;SDS011;70671;43.888;-79.394;2023-06-14T03:26:18;11.80;;;4.15;;
81195;SDS011;70671;43.888;-79.394;2023-06-14T03:28:44;12.80;;;5.30;;
81195;SDS011;70671;43.888;-79.394;2023-06-14T03:31:11;12.65;;;5.43;;
81195;SDS011;70671;43.888;-79.394;2023-06-14T03:33:38;14.20;;;5.38;;
81195;SDS011;70671;43.888;-79.394;2023-06-14T03:36:05;11.82;;;5.13;;
81195;SDS011;70671;43.888;-79.394;2023-06-14T03:38:35;11.75;;;5.72;;
81195;SDS011;70671;43.888;-79.394;2023-06-14T03:41:01;13.77;;;5.85;;
81195;SDS011;70671;43.888;-79.394;2023-06-14T03:43:27;11.90;;;5.25;;
81195;SDS011;70671;43.888;-79.394;2023-06-14T03:45:53;12.82;;;5.00;;
81195;SDS011;70671;43.888;-79.394;2023-06-14T03:48:19;11.20;;;4.70;;
81195;SDS011;70671;43.888;-79.394;2023-06-14T03:50:45;12.93;;;4.70;;
81195;SDS011;70671;43.888;-79.394;2023-06-14T03:53:12;11.07;;;4.30;;
81195;SDS011;70671;43.888;-79.394;2023-06-14T03:55:38;9.98;;;4.15;;
81195;SDS011;70671;43.888;-79.394;2023-06-14T03:58:04;10.20;;;4.47;;
81195;SDS011;70671;43.888;-79.394;2023-06-14T04:00:31;12.48;;;4.35;;
81195;SDS011;70671;43.888;-79.394;2023-06-14T04:02:57;11.70;;;4.65;;
81195;SDS011;70671;43.888;-79.394;2023-06-14T04:05:23;13.82;;;5.43;;
81195;SDS011;70671;43.888;-79.394;2023-06-14T04:07:51;12.07;;;5.05;;
81195;SDS011;70671;43.888;-79.394;2023-06-14T04:10:21;11.43;;;4.22;;
81195;SDS011;70671;43.888;-79.394;2023-06-14T04:12:47;11.68;;;5.05;;
81195;SDS011;70671;43.888;-79.394;2023-06-14T04:15:14;12.90;;;5.13;;
81195;SDS011;70671;43.888;-79.394;2023-06-14T04:17:42;16.08;;;5.72;;
81195;SDS011;70671;43.888;-79.394;2023-06-14T04:20:08;10.35;;;4.65;;
81195;SDS011;70671;43.888;-79.394;2023-06-14T04:22:35;11.25;;;4.43;;
81195;SDS011;70671;43.888;-79.394;2023-06-14T04:25:02;14.40;;;5.30;;
81195;SDS011;70671;43.888;-79.394;2023-06-14T04:27:28;12.73;;;5.13;;
81195;SDS011;70671;43.888;-79.394;2023-06-14T04:29:56;11.95;;;5.60;;
81195;SDS011;70671;43.888;-79.394;2023-06-14T04:32:23;10.48;;;4.55;;
81195;SDS011;70671;43.888;-79.394;2023-06-14T04:34:55;12.90;;;4.75;;
81195;SDS011;70671;43.888;-79.394;2023-06-14T04:37:22;13.85;;;5.13;;
81195;SDS011;70671;43.888;-79.394;2023-06-14T04:39:49;14.10;;;5.18;;
81195;SDS011;70671;43.888;-79.394;2023-06-14T04:42:16;13.25;;;5.50;;
81195;SDS011;70671;43.888;-79.394;2023-06-14T04:44:48;12.60;;;5.40;;
81195;SDS011;70671;43.888;-79.394;2023-06-14T04:47:14;11.15;;;4.95;;
81195;SDS011;70671;43.888;-79.394;2023-06-14T04:49:42;21.45;;;5.72;;
81195;SDS011;70671;43.888;-79.394;2023-06-14T04:52:08;14.02;;;6.03;;
81195;SDS011;70671;43.888;-79.394;2023-06-14T04:54:38;14.07;;;6.20;;
81195;SDS011;70671;43.888;-79.394;2023-06-14T04:57:08;13.85;;;6.38;;
81195;SDS011;70671;43.888;-79.394;2023-06-14T04:59:39;13.43;;;6.28;;
81195;SDS011;70671;43.888;-79.394;2023-06-14T05:02:06;15.48;;;7.13;;
81195;SDS011;70671;43.888;-79.394;2023-06-14T05:04:34;14.48;;;6.78;;
81195;SDS011;70671;43.888;-79.394;2023-06-14T05:09:32;13.50;;;6.00;;
81195;SDS011;70671;43.888;-79.394;2023-06-14T05:11:58;16.60;;;6.60;;
81195;SDS011;70671;43.888;-79.394;2023-06-14T05:14:25;15.93;;;6.50;;
81195;SDS011;70671;43.888;-79.394;2023-06-14T05:16:52;18.27;;;7.75;;
81195;SDS011;70671;43.888;-79.394;2023-06-14T05:19:18;16.23;;;6.47;;
81195;SDS011;70671;43.888;-79.394;2023-06-14T05:21:46;16.90;;;8.32;;
81195;SDS011;70671;43.888;-79.394;2023-06-14T05:24:13;17.33;;;8.35;;
81195;SDS011;70671;43.888;-79.394;2023-06-14T05:26:43;17.67;;;8.35;;
81195;SDS011;70671;43.888;-79.394;2023-06-14T05:29:09;18.27;;;8.70;;
81195;SDS011;70671;43.888;-79.394;2023-06-14T05:31:35;20.88;;;9.88;;
81195;SDS011;70671;43.888;-79.394;2023-06-14T05:34:01;19.13;;;9.27;;
81195;SDS011;70671;43.888;-79.394;2023-06-14T05:36:27;20.17;;;10.30;;
81195;SDS011;70671;43.888;-79.394;2023-06-14T05:38:53;23.45;;;10.30;;
81195;SDS011;70671;43.888;-79.394;2023-06-14T05:41:26;22.05;;;9.60;;
81195;SDS011;70671;43.888;-79.394;2023-06-14T05:43:53;20.60;;;9.10;;
81195;SDS011;70671;43.888;-79.394;2023-06-14T05:46:20;18.30;;;8.55;;
81195;SDS011;70671;43.888;-79.394;2023-06-14T05:48:49;21.58;;;9.70;;
81195;SDS011;70671;43.888;-79.394;2023-06-14T05:51:16;21.38;;;10.20;;
81195;SDS011;70671;43.888;-79.394;2023-06-14T05:53:50;23.15;;;9.98;;
81195;SDS011;70671;43.888;-79.394;2023-06-14T05:56:19;20.75;;;9.38;;
81195;SDS011;70671;43.888;-79.394;2023-06-14T05:58:45;24.48;;;10.50;;
81195;SDS011;70671;43.888;-79.394;2023-06-14T06:01:12;24.88;;;10.20;;
81195;SDS011;70671;43.888;-79.394;2023-06-14T06:03:39;21.90;;;10.02;;
81195;SDS011;70671;43.888;-79.394;2023-06-14T06:06:06;21.55;;;9.38;;
81195;SDS011;70671;43.888;-79.394;2023-06-14T06:08:33;23.30;;;10.18;;
81195;SDS011;70671;43.888;-79.394;2023-06-14T06:10:59;21.48;;;8.82;;
81195;SDS011;70671;43.888;-79.394;2023-06-14T06:13:25;25.80;;;11.85;;
81195;SDS011;70671;43.888;-79.394;2023-06-14T06:15:51;24.08;;;10.63;;
81195;SDS011;70671;43.888;-79.394;2023-06-14T06:18:17;22.15;;;10.75;;
81195;SDS011;70671;43.888;-79.394;2023-06-14T06:20:44;21.52;;;9.45;;
81195;SDS011;70671;43.888;-79.394;2023-06-14T06:23:10;21.13;;;9.57;;
81195;SDS011;70671;43.888;-79.394;2023-06-14T06:25:36;20.23;;;8.88;;
81195;SDS011;70671;43.888;-79.394;2023-06-14T06:28:02;21.13;;;9.00;;
81195;SDS011;70671;43.888;-79.394;2023-06-14T06:30:28;21.83;;;8.85;;
81195;SDS011;70671;43.888;-79.394;2023-06-14T06:32:54;23.48;;;9.32;;
81195;SDS011;70671;43.888;-79.394;2023-06-14T06:35:23;21.38;;;9.43;;
81195;SDS011;70671;43.888;-79.394;2023-06-14T06:37:50;23.65;;;11.40;;
81195;SDS011;70671;43.888;-79.394;2023-06-14T06:40:16;22.48;;;9.38;;
81195;SDS011;70671;43.888;-79.394;2023-06-14T06:42:45;23.17;;;9.93;;
81195;SDS011;70671;43.888;-79.394;2023-06-14T06:45:13;21.58;;;9.00;;
81195;SDS011;70671;43.888;-79.394;2023-06-14T06:47:39;25.23;;;10.68;;
81195;SDS011;70671;43.888;-79.394;2023-06-14T06:50:08;22.88;;;9.68;;
81195;SDS011;70671;43.888;-79.394;2023-06-14T06:52:34;21.13;;;9.40;;
81195;SDS011;70671;43.888;-79.394;2023-06-14T06:55:01;23.60;;;8.65;;
81195;SDS011;70671;43.888;-79.394;2023-06-14T06:57:28;24.17;;;9.48;;
81195;SDS011;70671;43.888;-79.394;2023-06-14T06:59:54;23.95;;;10.35;;
81195;SDS011;70671;43.888;-79.394;2023-06-14T07:02:20;28.02;;;11.32;;
81195;SDS011;70671;43.888;-79.394;2023-06-14T07:04:47;23.63;;;11.00;;
81195;SDS011;70671;43.888;-79.394;2023-06-14T07:07:13;28.38;;;11.75;;
81195;SDS011;70671;43.888;-79.394;2023-06-14T07:09:39;27.13;;;11.73;;
81195;SDS011;70671;43.888;-79.394;2023-06-14T07:12:06;32.95;;;11.88;;
81195;SDS011;70671;43.888;-79.394;2023-06-14T07:14:33;26.80;;;11.27;;
81195;SDS011;70671;43.888;-79.394;2023-06-14T07:16:59;27.20;;;11.00;;
81195;SDS011;70671;43.888;-79.394;2023-06-14T07:19:28;28.63;;;11.30;;
81195;SDS011;70671;43.888;-79.394;2023-06-14T07:21:54;25.67;;;10.65;;
81195;SDS011;70671;43.888;-79.394;2023-06-14T07:24:20;27.45;;;9.43;;
81195;SDS011;70671;43.888;-79.394;2023-06-14T07:26:46;24.45;;;9.52;;
81195;SDS011;70671;43.888;-79.394;2023-06-14T07:29:14;25.48;;;10.50;;
81195;SDS011;70671;43.888;-79.394;2023-06-14T07:31:41;20.63;;;9.68;;
81195;SDS011;70671;43.888;-79.394;2023-06-14T07:34:08;23.27;;;10.10;;
81195;SDS011;70671;43.888;-79.394;2023-06-14T07:36:34;25.15;;;9.82;;
81195;SDS011;70671;43.888;-79.394;2023-06-14T07:39:01;22.42;;;9.73;;
81195;SDS011;70671;43.888;-79.394;2023-06-14T07:41:29;20.13;;;8.20;;
81195;SDS011;70671;43.888;-79.394;2023-06-14T07:43:55;21.88;;;8.75;;
81195;SDS011;70671;43.888;-79.394;2023-06-14T07:46:21;20.30;;;8.80;;
81195;SDS011;70671;43.888;-79.394;2023-06-14T07:48:47;17.85;;;7.75;;
81195;SDS011;70671;43.888;-79.394;2023-06-14T07:51:13;18.73;;;7.68;;
81195;SDS011;70671;43.888;-79.394;2023-06-14T07:53:39;18.92;;;7.72;;
81195;SDS011;70671;43.888;-79.394;2023-06-14T07:56:06;19.70;;;8.93;;
81195;SDS011;70671;43.888;-79.394;2023-06-14T07:58:32;21.83;;;8.52;;
81195;SDS011;70671;43.888;-79.394;2023-06-14T08:00:58;21.15;;;7.70;;
81195;SDS011;70671;43.888;-79.394;2023-06-14T08:03:26;18.40;;;8.32;;
81195;SDS011;70671;43.888;-79.394;2023-06-14T08:05:52;18.30;;;7.63;;
81195;SDS011;70671;43.888;-79.394;2023-06-14T08:08:18;17.63;;;7.25;;
81195;SDS011;70671;43.888;-79.394;2023-06-14T08:10:44;18.05;;;7.50;;
81195;SDS011;70671;43.888;-79.394;2023-06-14T08:13:10;15.98;;;7.03;;
81195;SDS011;70671;43.888;-79.394;2023-06-14T08:15:36;16.98;;;7.25;;
81195;SDS011;70671;43.888;-79.394;2023-06-14T08:18:02;20.20;;;7.43;;
81195;SDS011;70671;43.888;-79.394;2023-06-14T08:20:28;16.45;;;6.35;;
81195;SDS011;70671;43.888;-79.394;2023-06-14T08:22:56;16.05;;;6.20;;
81195;SDS011;70671;43.888;-79.394;2023-06-14T08:25:23;14.68;;;6.90;;
81195;SDS011;70671;43.888;-79.394;2023-06-14T08:27:49;14.88;;;6.43;;
81195;SDS011;70671;43.888;-79.394;2023-06-14T08:30:15;13.50;;;6.28;;
81195;SDS011;70671;43.888;-79.394;2023-06-14T08:32:42;14.88;;;6.45;;
81195;SDS011;70671;43.888;-79.394;2023-06-14T08:35:09;16.60;;;7.28;;
81195;SDS011;70671;43.888;-79.394;2023-06-14T08:37:41;12.02;;;5.68;;
81195;SDS011;70671;43.888;-79.394;2023-06-14T08:40:20;13.93;;;5.97;;
81195;SDS011;70671;43.888;-79.394;2023-06-14T08:42:52;16.58;;;6.70;;
81195;SDS011;70671;43.888;-79.394;2023-06-14T08:45:20;13.30;;;5.90;;
81195;SDS011;70671;43.888;-79.394;2023-06-14T08:47:47;14.90;;;6.97;;
81195;SDS011;70671;43.888;-79.394;2023-06-14T08:50:23;18.05;;;7.18;;
81195;SDS011;70671;43.888;-79.394;2023-06-14T08:52:59;15.18;;;6.78;;
81195;SDS011;70671;43.888;-79.394;2023-06-14T08:55:27;15.45;;;6.88;;
81195;SDS011;70671;43.888;-79.394;2023-06-14T08:57:55;15.55;;;5.32;;
81195;SDS011;70671;43.888;-79.394;2023-06-14T09:00:27;17.50;;;7.50;;
81195;SDS011;70671;43.888;-79.394;2023-06-14T09:02:53;16.40;;;6.20;;
81195;SDS011;70671;43.888;-79.394;2023-06-14T09:05:27;15.93;;;5.90;;
81195;SDS011;70671;43.888;-79.394;2023-06-14T09:07:53;19.38;;;6.97;;
81195;SDS011;70671;43.888;-79.394;2023-06-14T09:10:21;15.63;;;6.15;;
81195;SDS011;70671;43.888;-79.394;2023-06-14T09:12:47;19.75;;;6.25;;
81195;SDS011;70671;43.888;-79.394;2023-06-14T09:15:13;19.02;;;6.15;;
81195;SDS011;70671;43.888;-79.394;2023-06-14T09:17:40;17.48;;;6.88;;
81195;SDS011;70671;43.888;-79.394;2023-06-14T09:20:07;16.00;;;5.93;;
81195;SDS011;70671;43.888;-79.394;2023-06-14T09:22:44;19.40;;;6.78;;
81195;SDS011;70671;43.888;-79.394;2023-06-14T09:25:11;18.90;;;6.53;;
81195;SDS011;70671;43.888;-79.394;2023-06-14T09:27:40;18.85;;;7.40;;
81195;SDS011;70671;43.888;-79.394;2023-06-14T09:30:08;14.77;;;6.25;;
81195;SDS011;70671;43.888;-79.394;2023-06-14T09:32:38;19.70;;;6.35;;
81195;SDS011;70671;43.888;-79.394;2023-06-14T09:35:08;14.40;;;5.97;;
81195;SDS011;70671;43.888;-79.394;2023-06-14T09:37:35;17.75;;;6.40;;
81195;SDS011;70671;43.888;-79.394;2023-06-14T09:40:03;12.90;;;5.15;;
81195;SDS011;70671;43.888;-79.394;2023-06-14T09:42:30;16.65;;;5.88;;
81195;SDS011;70671;43.888;-79.394;2023-06-14T09:44:56;14.88;;;5.88;;
81195;SDS011;70671;43.888;-79.394;2023-06-14T09:47:23;14.43;;;5.78;;
81195;SDS011;70671;43.888;-79.394;2023-06-14T09:49:50;18.95;;;6.32;;
81195;SDS011;70671;43.888;-79.394;2023-06-14T09:52:20;14.32;;;5.57;;
81195;SDS011;70671;43.888;-79.394;2023-06-14T09:54:52;15.65;;;6.30;;
81195;SDS011;70671;43.888;-79.394;2023-06-14T09:57:22;16.75;;;6.45;;
81195;SDS011;70671;43.888;-79.394;2023-06-14T09:59:56;12.82;;;5.93;;
81195;SDS011;70671;43.888;-79.394;2023-06-14T10:02:26;10.90;;;5.35;;
81195;SDS011;70671;43.888;-79.394;2023-06-14T10:05:04;17.48;;;6.75;;
81195;SDS011;70671;43.888;-79.394;2023-06-14T10:07:37;14.00;;;5.63;;
81195;SDS011;70671;43.888;-79.394;2023-06-14T10:10:06;14.02;;;5.75;;
81195;SDS011;70671;43.888;-79.394;2023-06-14T10:12:33;15.38;;;5.68;;
81195;SDS011;70671;43.888;-79.394;2023-06-14T10:14:59;14.32;;;6.38;;
81195;SDS011;70671;43.888;-79.394;2023-06-14T10:22:43;13.40;;;5.88;;
81195;SDS011;70671;43.888;-79.394;2023-06-14T10:25:27;15.15;;;5.57;;
81195;SDS011;70671;43.888;-79.394;2023-06-14T10:28:19;12.32;;;4.78;;
81195;SDS011;70671;43.888;-79.394;2023-06-14T10:31:09;13.27;;;5.05;;
81195;SDS011;70671;43.888;-79.394;2023-06-14T10:33:48;11.85;;;5.28;;
81195;SDS011;70671;43.888;-79.394;2023-06-14T10:36:31;11.50;;;4.72;;
81195;SDS011;70671;43.888;-79.394;2023-06-14T10:41:39;13.43;;;5.28;;
81195;SDS011;70671;43.888;-79.394;2023-06-14T10:46:39;12.65;;;5.68;;
81195;SDS011;70671;43.888;-79.394;2023-06-14T10:49:18;11.00;;;5.20;;
81195;SDS011;70671;43.888;-79.394;2023-06-14T10:51:51;12.52;;;5.43;;
81195;SDS011;70671;43.888;-79.394;2023-06-14T10:54:20;10.73;;;4.32;;
81195;SDS011;70671;43.888;-79.394;2023-06-14T10:56:47;12.48;;;5.32;;
81195;SDS011;70671;43.888;-79.394;2023-06-14T10:59:17;11.57;;;5.35;;
81195;SDS011;70671;43.888;-79.394;2023-06-14T11:12:25;13.43;;;5.57;;
81195;SDS011;70671;43.888;-79.394;2023-06-14T11:14:53;10.10;;;4.82;;
81195;SDS011;70671;43.888;-79.394;2023-06-14T11:17:19;12.70;;;4.97;;
81195;SDS011;70671;43.888;-79.394;2023-06-14T11:19:45;12.00;;;4.75;;
81195;SDS011;70671;43.888;-79.394;2023-06-14T11:22:11;11.02;;;5.03;;
81195;SDS011;70671;43.888;-79.394;2023-06-14T11:24:39;10.40;;;4.80;;
81195;SDS011;70671;43.888;-79.394;2023-06-14T11:27:06;13.02;;;4.53;;
81195;SDS011;70671;43.888;-79.394;2023-06-14T11:29:32;10.40;;;4.82;;
81195;SDS011;70671;43.888;-79.394;2023-06-14T11:31:57;12.85;;;4.85;;
81195;SDS011;70671;43.888;-79.394;2023-06-14T11:34:24;14.55;;;5.22;;
81195;SDS011;70671;43.888;-79.394;2023-06-14T11:36:50;10.05;;;5.55;;
81195;SDS011;70671;43.888;-79.394;2023-06-14T11:39:16;13.00;;;4.30;;
81195;SDS011;70671;43.888;-79.394;2023-06-14T11:41:43;9.75;;;4.50;;
81195;SDS011;70671;43.888;-79.394;2023-06-14T11:44:10;14.43;;;5.30;;
81195;SDS011;70671;43.888;-79.394;2023-06-14T11:46:39;10.65;;;4.75;;
81195;SDS011;70671;43.888;-79.394;2023-06-14T11:49:06;10.02;;;4.38;;
81195;SDS011;70671;43.888;-79.394;2023-06-14T11:51:34;12.70;;;5.65;;
81195;SDS011;70671;43.888;-79.394;2023-06-14T11:54:01;12.00;;;5.00;;
81195;SDS011;70671;43.888;-79.394;2023-06-14T11:56:28;9.20;;;4.13;;
81195;SDS011;70671;43.888;-79.394;2023-06-14T11:58:55;10.43;;;4.78;;
81195;SDS011;70671;43.888;-79.394;2023-06-14T12:01:24;10.57;;;4.55;;
81195;SDS011;70671;43.888;-79.394;2023-06-14T12:03:51;11.00;;;5.13;;
81195;SDS011;70671;43.888;-79.394;2023-06-14T12:06:26;11.27;;;5.45;;
81195;SDS011;70671;43.888;-79.394;2023-06-14T12:08:58;12.00;;;4.82;;
81195;SDS011;70671;43.888;-79.394;2023-06-14T12:11:24;11.13;;;4.82;;
81195;SDS011;70671;43.888;-79.394;2023-06-14T12:13:57;14.23;;;4.97;;
81195;SDS011;70671;43.888;-79.394;2023-06-14T12:16:29;12.57;;;5.38;;
81195;SDS011;70671;43.888;-79.394;2023-06-14T12:18:59;10.10;;;4.75;;
81195;SDS011;70671;43.888;-79.394;2023-06-14T12:21:26;11.65;;;5.43;;
81195;SDS011;70671;43.888;-79.394;2023-06-14T12:23:53;11.77;;;5.10;;
81195;SDS011;70671;43.888;-79.394;2023-06-14T12:26:19;9.52;;;4.70;;
81195;SDS011;70671;43.888;-79.394;2023-06-14T12:28:47;12.38;;;5.00;;
81195;SDS011;70671;43.888;-79.394;2023-06-14T12:31:14;11.40;;;4.30;;
81195;SDS011;70671;43.888;-79.394;2023-06-14T12:33:41;9.32;;;4.35;;
81195;SDS011;70671;43.888;-79.394;2023-06-14T12:36:08;9.18;;;4.40;;
81195;SDS011;70671;43.888;-79.394;2023-06-14T12:38:35;11.48;;;4.57;;
81195;SDS011;70671;43.888;-79.394;2023-06-14T12:41:01;10.10;;;4.63;;
81195;SDS011;70671;43.888;-79.394;2023-06-14T12:43:28;9.52;;;4.30;;
81195;SDS011;70671;43.888;-79.394;2023-06-14T12:45:54;10.98;;;4.78;;
81195;SDS011;70671;43.888;-79.394;2023-06-14T12:48:20;12.60;;;4.55;;
81195;SDS011;70671;43.888;-79.394;2023-06-14T12:50:47;9.85;;;4.60;;
81195;SDS011;70671;43.888;-79.394;2023-06-14T12:53:13;12.85;;;5.60;;
81195;SDS011;70671;43.888;-79.394;2023-06-14T12:55:39;11.35;;;5.40;;
81195;SDS011;70671;43.888;-79.394;2023-06-14T12:58:06;10.80;;;4.75;;
81195;SDS011;70671;43.888;-79.394;2023-06-14T13:00:32;12.07;;;5.20;;
81195;SDS011;70671;43.888;-79.394;2023-06-14T13:02:58;9.55;;;4.28;;
81195;SDS011;70671;43.888;-79.394;2023-06-14T13:05:24;11.02;;;5.32;;
81195;SDS011;70671;43.888;-79.394;2023-06-14T13:07:50;9.13;;;5.07;;
81195;SDS011;70671;43.888;-79.394;2023-06-14T13:10:16;10.55;;;5.35;;
81195;SDS011;70671;43.888;-79.394;2023-06-14T13:12:43;11.13;;;4.72;;
81195;SDS011;70671;43.888;-79.394;2023-06-14T13:15:09;10.68;;;4.90;;
81195;SDS011;70671;43.888;-79.394;2023-06-14T13:17:35;9.68;;;4.82;;
81195;SDS011;70671;43.888;-79.394;2023-06-14T13:20:05;11.07;;;5.45;;
81195;SDS011;70671;43.888;-79.394;2023-06-14T13:22:32;10.32;;;5.10;;
81195;SDS011;70671;43.888;-79.394;2023-06-14T13:25:05;10.25;;;3.97;;
81195;SDS011;70671;43.888;-79.394;2023-06-14T13:27:31;9.55;;;4.38;;
81195;SDS011;70671;43.888;-79.394;2023-06-14T13:29:57;10.07;;;4.40;;
81195;SDS011;70671;43.888;-79.394;2023-06-14T13:32:24;8.68;;;3.78;;
81195;SDS011;70671;43.888;-79.394;2023-06-14T13:34:50;9.18;;;4.75;;
81195;SDS011;70671;43.888;-79.394;2023-06-14T13:37:16;9.55;;;4.07;;
81195;SDS011;70671;43.888;-79.394;2023-06-14T13:39:42;8.73;;;4.22;;
81195;SDS011;70671;43.888;-79.394;2023-06-14T13:42:08;11.70;;;4.65;;
81195;SDS011;70671;43.888;-79.394;2023-06-14T13:44:35;8.45;;;4.13;;
81195;SDS011;70671;43.888;-79.394;2023-06-14T13:47:01;9.90;;;4.45;;
81195;SDS011;70671;43.888;-79.394;2023-06-14T13:49:28;8.90;;;4.25;;
81195;SDS011;70671;43.888;-79.394;2023-06-14T13:51:54;11.02;;;4.88;;
81195;SDS011;70671;43.888;-79.394;2023-06-14T13:54:20;10.13;;;4.68;;
81195;SDS011;70671;43.888;-79.394;2023-06-14T13:56:46;8.32;;;4.38;;
81195;SDS011;70671;43.888;-79.394;2023-06-14T13:59:12;12.13;;;4.90;;
81195;SDS011;70671;43.888;-79.394;2023-06-14T14:01:39;9.68;;;4.35;;
81195;SDS011;70671;43.888;-79.394;2023-06-14T14:04:05;10.85;;;4.45;;
81195;SDS011;70671;43.888;-79.394;2023-06-14T14:06:31;9.65;;;4.63;;
81195;SDS011;70671;43.888;-79.394;2023-06-14T14:08:57;9.82;;;4.90;;
81195;SDS011;70671;43.888;-79.394;2023-06-14T14:11:23;10.00;;;5.53;;
81195;SDS011;70671;43.888;-79.394;2023-06-14T14:13:49;8.88;;;3.80;;
81195;SDS011;70671;43.888;-79.394;2023-06-14T14:16:15;8.68;;;4.10;;
81195;SDS011;70671;43.888;-79.394;2023-06-14T14:18:41;8.88;;;3.42;;
81195;SDS011;70671;43.888;-79.394;2023-06-14T14:21:07;9.52;;;3.42;;
81195;SDS011;70671;43.888;-79.394;2023-06-14T14:23:34;8.65;;;3.60;;
81195;SDS011;70671;43.888;-79.394;2023-06-14T14:26:00;8.20;;;3.28;;
81195;SDS011;70671;43.888;-79.394;2023-06-14T14:28:29;8.55;;;3.38;;
81195;SDS011;70671;43.888;-79.394;2023-06-14T14:30:56;7.55;;;3.13;;
81195;SDS011;70671;43.888;-79.394;2023-06-14T14:33:22;7.68;;;3.30;;
81195;SDS011;70671;43.888;-79.394;2023-06-14T14:35:48;7.57;;;3.42;;
81195;SDS011;70671;43.888;-79.394;2023-06-14T14:38:14;9.70;;;4.88;;
81195;SDS011;70671;43.888;-79.394;2023-06-14T14:40:41;10.65;;;4.00;;
81195;SDS011;70671;43.888;-79.394;2023-06-14T14:43:08;8.13;;;3.70;;